Terminal Aerodrome Forecast
Issued by NWS Jackson, KY

Home | Current Version | Previous Version | Text Only | Print | Product List | Glossary On
Versions: 1 2 3 4 5 6 7 8 9 10 11 12 13 14 15 16 17 18 19 20
000
FTUS43 KJKL 222300
TAFJKL
TAF
KJKL 222338Z 2300/2324 VRB03KT P6SM OVC035
     FM230100 VRB03KT P6SM BKN025
     FM230900 00000KT P6SM SCT020
     FM231300 VRB03KT P6SM SCT050=

USA.gov is the U.S. government's official web portal to all federal, state and local government web resources and services.